Alto, TX (75925)

7:58 AM CDT on July 28, 2016 (GMT -0500)
Rural Alto | | Change Station

Elev 354 ft 31.52 °N, 95.06 °W | Updated 11 minutes ago

Overcast
Overcast
75.9 °F
Feels Like 75 °F
N
0.0
Wind Variable Wind from SW
Gusts 0.0 mph

Today
High -- | Low -- °F
--% Chance of Precip.
Yesterday
High -- | Low -- °F
Precip. -- in
Pressure 30.05 in
Visibility -9999.0 miles
Clouds Mostly Cloudy 700 ft
Mostly Cloudy 1200 ft
Overcast 5000 ft
Heat Index 75 °F
Dew Point 75 °F
Humidity 98%
Rainfall 0.00 in
Snow Depth Not available.
6:34 AM 8:19 PM
Waning Crescent, 32% visible
METAR KJSO 281235Z AUTO 20004KT BKN007 BKN012 OVC050 25/24 A3005 RMK AO2 T02470245 PWINO
Pressure 30.05 in
Visibility -9999.0 miles
Clouds Mostly Cloudy 700 ft
Mostly Cloudy 1200 ft
Overcast 5000 ft
Heat Index 75 °F
Dew Point 75 °F
Humidity 98%
Rainfall 0.00 in
Snow Depth Not available.
6:34 AM 8:19 PM
Waning Crescent, 32% visible
METAR KJSO 281235Z AUTO 20004KT BKN007 BKN012 OVC050 25/24 A3005 RMK AO2 T02470245 PWINO

10-Day Weather Forecast

Almanac

Astronomy

Jul. 28, 2016 Rise Set
Actual Time
Civil Twilight
Nautical Twilight
Astronomical Twilight
Moon
Length of Visible Light
Length of Day
Tomorrow will be .
, % of the Moon is Illuminated

Today's Extremes

State Highs State Lows

Community

WunderPhotos

Upload Photos

1,928,101 photos uploaded!

WunderBlog® & News

Nearby

Air Quality

  Air Quality AQ Index Pollutant
Not available.

Snow Depth

Station Depth Elevation

Earthquake Activity

City Distance Mag. Time & Date
Minimum magnitude displayed is 2.5.

Coastal Water Temperatures

Place Temperature

Stations

Nearby Weather Stations

Station Location Temp. Windchill Dew Point Humidity Wind Precip. Elev Updated Type
                   

Watches & Warnings

There are currently no watches in effect.